createdAt,value
2022-10-19T00:04:58.159Z,11.27
2022-10-19T00:11:18.246Z,11.33
2022-10-19T00:17:41.201Z,11.35
2022-10-19T00:24:01.145Z,11.32
2022-10-19T00:30:24.171Z,11.29
2022-10-19T00:36:44.203Z,11.25
2022-10-19T00:43:07.266Z,11.21
2022-10-19T00:49:27.181Z,11.18
2022-10-19T00:55:50.235Z,11.09
2022-10-19T01:02:10.169Z,11.01
2022-10-19T01:08:33.226Z,10.98
2022-10-19T01:14:53.236Z,10.98
2022-10-19T01:21:16.164Z,10.98
2022-10-19T01:27:36.497Z,10.96
2022-10-19T01:33:59.229Z,10.85
2022-10-19T01:40:19.376Z,10.83
2022-10-19T01:46:42.148Z,10.82
2022-10-19T01:53:02.188Z,10.77
2022-10-19T01:59:25.177Z,10.73
2022-10-19T02:05:45.177Z,10.69
2022-10-19T02:12:08.226Z,10.58
2022-10-19T02:18:28.178Z,10.51
2022-10-19T02:24:51.223Z,10.45
2022-10-19T02:31:11.197Z,10.45
2022-10-19T02:43:54.165Z,10.42
2022-10-19T02:50:17.207Z,10.39
2022-10-19T02:56:37.153Z,10.33
2022-10-19T03:03:00.177Z,10.3
2022-10-19T03:09:20.196Z,10.3
2022-10-19T03:15:43.142Z,10.34
2022-10-19T03:39:42.180Z,10.15
2022-10-19T03:46:02.145Z,10.09
2022-10-19T03:52:25.175Z,9.98
2022-10-19T03:58:45.173Z,9.93
2022-10-19T04:05:08.170Z,9.92
2022-10-19T04:11:28.182Z,9.91
2022-10-19T04:17:51.182Z,9.84
2022-10-19T04:24:11.231Z,9.78
2022-10-19T04:30:34.191Z,9.75
2022-10-19T04:36:54.176Z,9.76
2022-10-19T04:43:17.281Z,9.78
2022-10-19T04:49:37.139Z,9.76
2022-10-19T04:56:00.211Z,9.74
2022-10-19T05:02:20.173Z,9.72
2022-10-19T05:08:43.181Z,9.67
2022-10-19T05:15:03.225Z,9.58
2022-10-19T05:21:26.175Z,9.57
2022-10-19T05:27:46.377Z,9.58
2022-10-19T05:34:09.282Z,9.59
2022-10-19T05:40:29.196Z,9.5
2022-10-19T05:46:52.180Z,9.44
2022-10-19T05:53:12.194Z,9.47
2022-10-19T05:59:35.196Z,9.48
2022-10-19T06:05:55.158Z,9.53
2022-10-19T06:12:20.394Z,9.54
2022-10-19T06:18:38.240Z,9.57
2022-10-19T06:25:01.395Z,9.59
2022-10-19T06:31:21.214Z,9.58
2022-10-19T06:37:44.194Z,9.56
2022-10-19T06:44:04.238Z,9.54
2022-10-19T06:50:27.279Z,9.55
2022-10-19T06:56:47.201Z,9.53
2022-10-19T07:03:10.223Z,9.47
2022-10-19T07:09:30.233Z,9.41
2022-10-19T07:15:53.261Z,9.4
2022-10-19T07:22:17.025Z,9.48
2022-10-19T07:28:36.256Z,9.5
2022-10-19T07:34:56.287Z,9.54
2022-10-19T07:41:19.253Z,9.61
2022-10-19T07:47:39.260Z,9.64
2022-10-19T07:54:02.321Z,9.74
2022-10-19T08:00:22.243Z,9.85
2022-10-19T08:06:45.236Z,9.96
2022-10-19T08:13:05.256Z,10.11
2022-10-19T08:19:28.540Z,10.27
2022-10-19T08:25:48.227Z,10.4
2022-10-19T08:50:07.659Z,10.71
2022-10-19T08:56:46.196Z,10.8
2022-10-19T09:02:50.287Z,10.98
2022-10-19T09:09:10.221Z,11.19
2022-10-19T09:15:33.298Z,11.39
2022-10-19T09:21:53.194Z,11.66
2022-10-19T09:28:16.242Z,11.91
2022-10-19T09:34:36.185Z,12.14
2022-10-19T09:40:59.194Z,12.33
2022-10-19T09:47:19.212Z,12.58
2022-10-19T09:53:42.215Z,12.91
2022-10-19T10:00:02.220Z,13.15
2022-10-19T10:06:25.188Z,13.5
2022-10-19T10:12:45.217Z,13.84
2022-10-19T10:19:08.262Z,14.11
2022-10-19T10:25:28.195Z,14.34
2022-10-19T10:31:51.226Z,14.66
2022-10-19T10:38:11.186Z,14.99
2022-10-19T10:44:34.215Z,15.32
2022-10-19T10:50:54.192Z,15.57
2022-10-19T10:57:17.242Z,15.79
2022-10-19T11:03:37.204Z,16.15
2022-10-19T11:10:00.166Z,16.4
2022-10-19T11:16:20.184Z,16.68
2022-10-19T11:22:44.276Z,17
2022-10-19T11:29:04.169Z,17.28
2022-10-19T11:35:27.183Z,17.53
2022-10-19T11:41:47.185Z,17.71
2022-10-19T11:48:10.182Z,17.79
2022-10-19T11:54:30.166Z,17.85
2022-10-19T12:00:53.208Z,18.1
2022-10-19T12:07:13.213Z,18.51
2022-10-19T12:13:36.161Z,18.7
2022-10-19T12:19:56.228Z,18.85
2022-10-19T12:32:39.182Z,19.06
2022-10-19T12:39:02.219Z,19.23
2022-10-19T12:45:22.157Z,19.5
2022-10-19T12:51:45.178Z,19.6
2022-10-19T12:58:05.210Z,19.5
2022-10-19T13:04:28.168Z,19.24
2022-10-19T13:10:48.173Z,19.08
2022-10-19T13:17:11.195Z,18.88
2022-10-19T13:23:31.192Z,18.72
2022-10-19T13:29:54.164Z,18.56
2022-10-19T13:36:14.184Z,18.42
2022-10-19T13:42:37.436Z,18.43
2022-10-19T13:48:57.189Z,18.38
2022-10-19T14:06:08.191Z,18.18
2022-10-19T14:12:28.188Z,18.15
2022-10-19T14:18:51.200Z,18.1
2022-10-19T14:25:11.188Z,18.05
2022-10-19T14:31:34.156Z,17.97
2022-10-19T14:37:54.182Z,17.88
2022-10-19T14:44:17.184Z,17.76
2022-10-19T14:57:00.149Z,17.56
2022-10-19T15:03:20.189Z,17.53
2022-10-19T15:09:48.064Z,17.51
2022-10-19T15:16:03.150Z,17.47
2022-10-19T15:22:26.213Z,17.44
2022-10-19T15:28:46.159Z,17.42
2022-10-19T15:35:11.854Z,17.36
2022-10-19T15:41:29.213Z,17.23
2022-10-19T15:47:52.170Z,17.1
2022-10-19T15:54:12.181Z,16.94
2022-10-19T16:00:35.181Z,16.7
2022-10-19T16:06:55.215Z,16.4
2022-10-19T16:13:18.167Z,16.17
2022-10-19T16:19:38.240Z,15.95
2022-10-19T16:26:01.152Z,15.76
2022-10-19T16:32:21.259Z,15.5
2022-10-19T16:38:44.234Z,15.26
2022-10-19T16:45:04.311Z,15.08
2022-10-19T16:51:27.180Z,14.88
2022-10-19T16:57:47.185Z,14.76
2022-10-19T17:04:10.190Z,14.63
2022-10-19T17:10:30.187Z,14.43
2022-10-19T17:16:53.234Z,14.17
2022-10-19T17:23:13.161Z,13.9
2022-10-19T17:29:36.154Z,13.66
2022-10-19T17:35:56.201Z,13.42
2022-10-19T17:42:19.162Z,13.25
2022-10-19T17:48:39.208Z,13.13
2022-10-19T17:55:17.718Z,12.99
2022-10-19T18:01:22.166Z,12.86
2022-10-19T18:07:45.154Z,12.78
2022-10-19T18:14:05.170Z,12.67
2022-10-19T18:20:28.184Z,12.56
2022-10-19T18:26:48.146Z,12.49
2022-10-19T18:33:11.170Z,12.45
2022-10-19T18:39:31.151Z,12.36
2022-10-19T18:45:54.153Z,12.28
2022-10-19T18:52:14.345Z,12.21
2022-10-19T18:58:37.170Z,12.18
2022-10-19T19:04:57.211Z,12.1
2022-10-19T19:11:20.451Z,12.03
2022-10-19T19:27:46.095Z,11.86
2022-10-19T19:34:06.137Z,11.81
2022-10-19T19:40:29.193Z,11.79
2022-10-19T19:46:49.195Z,11.72
2022-10-19T19:53:12.143Z,11.64
2022-10-19T19:59:32.216Z,11.59
2022-10-19T20:05:55.178Z,11.57
2022-10-19T20:12:15.164Z,11.54
2022-10-19T20:18:38.423Z,11.49
2022-10-19T20:24:58.221Z,11.44
2022-10-19T20:31:21.268Z,11.37
2022-10-19T20:37:41.461Z,11.22
2022-10-19T20:44:04.187Z,11.08
2022-10-19T20:50:24.201Z,11.01
2022-10-19T20:56:47.176Z,11
2022-10-19T21:03:07.231Z,10.96
2022-10-19T21:09:30.183Z,10.89
2022-10-19T21:15:50.192Z,10.8
2022-10-19T21:22:13.208Z,10.75
2022-10-19T21:28:33.187Z,10.75
2022-10-19T21:34:56.194Z,10.72
2022-10-19T21:41:16.177Z,10.69
2022-10-19T21:47:39.265Z,10.6
2022-10-19T21:53:59.322Z,10.53
2022-10-19T22:00:22.173Z,10.52
2022-10-19T22:23:19.170Z,10.61
2022-10-19T22:29:39.189Z,10.62
2022-10-19T22:36:02.158Z,10.64
2022-10-19T22:42:22.213Z,10.73
2022-10-19T22:48:45.225Z,10.82
2022-10-19T22:55:05.171Z,10.89
2022-10-19T23:01:28.318Z,10.92
2022-10-19T23:07:48.207Z,10.92
2022-10-19T23:14:11.251Z,10.91
2022-10-19T23:20:31.213Z,10.9
2022-10-19T23:26:54.243Z,10.89
2022-10-19T23:33:14.202Z,10.82
2022-10-19T23:39:37.244Z,10.77
2022-10-19T23:45:57.224Z,10.75
2022-10-19T23:52:20.151Z,10.74
2022-10-19T23:58:40.253Z,10.72
